createdAt,value
2023-03-28T04:02:44.115Z,99.90
2023-03-28T04:05:15.928Z,99.90
2023-03-28T04:07:47.603Z,99.90
2023-03-28T04:10:19.422Z,99.90
2023-03-28T04:12:51.098Z,99.90
2023-03-28T04:15:22.811Z,99.90
2023-03-28T04:17:55.988Z,99.90
2023-03-28T04:20:27.649Z,99.90
2023-03-28T04:22:59.344Z,99.90
2023-03-28T04:25:31.076Z,99.90
2023-03-28T04:28:02.835Z,99.90
2023-03-28T04:30:34.606Z,99.90
2023-03-28T04:33:07.795Z,99.90
2023-03-28T04:35:39.565Z,99.90
2023-03-28T04:38:20.944Z,99.90
2023-03-28T04:40:53.360Z,99.90
2023-03-28T04:43:25.037Z,99.90
2023-03-28T04:45:57.309Z,99.90
2023-03-28T04:48:30.350Z,99.90
2023-03-28T04:51:02.043Z,99.90
2023-03-28T04:53:33.697Z,99.90
2023-03-28T04:56:06.100Z,99.90
2023-03-28T04:58:37.743Z,99.90
2023-03-28T05:01:09.431Z,99.90
2023-03-28T05:03:42.466Z,99.90
2023-03-28T05:06:14.186Z,99.90
2023-03-28T05:08:45.851Z,99.90
2023-03-28T05:11:17.518Z,99.90
2023-03-28T05:13:49.147Z,99.90
2023-03-28T05:16:20.831Z,99.90
2023-03-28T05:18:53.833Z,99.90
2023-03-28T05:21:25.489Z,99.90
2023-03-28T05:23:57.208Z,99.90
2023-03-28T05:26:28.882Z,99.90
2023-03-28T05:29:00.641Z,99.90
2023-03-28T05:31:32.340Z,99.90
2023-03-28T05:34:05.362Z,99.90
2023-03-28T05:36:37.016Z,99.90
2023-03-28T05:39:08.633Z,99.90
2023-03-28T05:41:40.306Z,99.90
2023-03-28T05:44:11.981Z,99.90
2023-03-28T05:46:43.647Z,99.90
2023-03-28T05:49:16.850Z,99.90
2023-03-28T05:51:48.511Z,99.90
2023-03-28T05:54:20.151Z,99.90
2023-03-28T05:56:51.925Z,99.90
2023-03-28T05:59:23.757Z,99.90
2023-03-28T06:01:55.596Z,99.90
2023-03-28T06:04:28.633Z,99.90
2023-03-28T06:07:02.134Z,99.90
2023-03-28T06:09:34.753Z,99.90
2023-03-28T06:12:06.667Z,99.90
2023-03-28T06:14:38.337Z,99.90
2023-03-28T06:17:10.042Z,99.90
2023-03-28T06:19:43.116Z,99.90
2023-03-28T06:22:14.868Z,60.40
2023-03-28T06:24:46.516Z,99.90
2023-03-28T06:27:18.182Z,2.10
2023-03-28T06:29:49.857Z,1.00
2023-03-28T06:32:21.578Z,1.00
2023-03-28T06:34:54.658Z,1.00
2023-03-28T06:37:26.370Z,1.00
2023-03-28T06:39:58.029Z,1.00
2023-03-28T06:42:29.722Z,1.00
2023-03-28T06:45:01.363Z,1.00
2023-03-28T06:47:33.077Z,99.90
2023-03-28T06:50:06.947Z,99.90
2023-03-28T06:52:38.633Z,99.90
2023-03-28T06:55:10.283Z,1.00
2023-03-28T06:57:41.937Z,28.30
2023-03-28T07:00:14.545Z,99.90
2023-03-28T07:02:46.260Z,1.00
2023-03-28T07:05:19.436Z,68.20
2023-03-28T07:07:51.116Z,99.90
2023-03-28T07:10:22.810Z,99.90
2023-03-28T07:12:54.534Z,1.00
2023-03-28T07:15:26.230Z,1.00
2023-03-28T07:17:57.964Z,1.00
2023-03-28T07:20:31.088Z,1.00
2023-03-28T07:23:02.929Z,81.60
2023-03-28T07:25:34.637Z,99.90
2023-03-28T07:28:06.301Z,1.00
2023-03-28T07:30:37.936Z,83.80
2023-03-28T07:33:18.329Z,99.90
2023-03-28T07:35:52.975Z,99.80
2023-03-28T07:38:24.828Z,1.00
2023-03-28T07:41:00.024Z,1.00
2023-03-28T07:43:31.852Z,1.00
2023-03-28T07:46:04.404Z,1.00
2023-03-28T07:48:36.336Z,1.00
2023-03-28T07:51:09.928Z,1.00
2023-03-28T07:53:41.704Z,1.00
2023-03-28T07:56:13.361Z,1.00
2023-03-28T07:58:45.018Z,1.00
2023-03-28T08:01:16.745Z,99.90
2023-03-28T08:03:48.513Z,1.00
2023-03-28T08:06:31.488Z,1.00
2023-03-28T08:09:04.097Z,99.90
2023-03-28T08:11:35.803Z,1.00
2023-03-28T08:14:08.130Z,99.90
2023-03-28T08:16:39.921Z,1.00
2023-03-28T08:19:12.172Z,1.00
2023-03-28T08:21:45.281Z,1.00
2023-03-28T08:27:00.823Z,1.00
2023-03-28T08:32:04.585Z,1.00
2023-03-28T08:34:36.263Z,1.00
2023-03-28T08:37:09.265Z,1.00
2023-03-28T08:39:40.885Z,1.00
2023-03-28T08:42:24.252Z,1.00
2023-03-28T08:45:19.194Z,1.00
2023-03-28T08:47:56.067Z,1.00
2023-03-28T08:50:29.970Z,1.00
2023-03-28T08:53:03.178Z,1.00
2023-03-28T08:55:36.600Z,1.00
2023-03-28T08:58:09.363Z,1.00
2023-03-28T09:00:40.996Z,1.00
2023-03-28T09:03:13.674Z,1.00
2023-03-28T09:05:47.484Z,1.00
2023-03-28T09:08:38.350Z,1.00
2023-03-28T09:11:17.681Z,1.00
2023-03-28T09:13:53.921Z,1.00
2023-03-28T09:16:46.699Z,1.00
2023-03-28T09:19:47.929Z,70.50
2023-03-28T09:22:27.072Z,1.00
2023-03-28T09:25:08.745Z,99.90
2023-03-28T09:27:48.611Z,1.00
2023-03-28T09:30:21.658Z,1.00
2023-03-28T09:32:53.976Z,1.00
2023-03-28T09:35:25.923Z,1.00
2023-03-28T09:37:59.573Z,99.90
2023-03-28T09:40:33.092Z,1.00
2023-03-28T09:43:07.704Z,1.00
2023-03-28T09:45:54.950Z,99.90
2023-03-28T09:48:28.231Z,99.90
2023-03-28T09:51:00.220Z,99.90
2023-03-28T09:53:33.394Z,99.90
2023-03-28T09:56:10.922Z,1.00
2023-03-28T09:58:47.685Z,1.00
2023-03-28T10:01:29.825Z,1.00
2023-03-28T10:04:01.508Z,1.00
2023-03-28T10:06:33.191Z,99.90
2023-03-28T10:09:17.090Z,99.90
2023-03-28T10:11:51.433Z,99.90
2023-03-28T10:14:33.565Z,1.00
2023-03-28T10:17:06.205Z,18.50
2023-03-28T10:19:39.796Z,21.30
2023-03-28T10:22:12.745Z,24.50
2023-03-28T10:24:45.450Z,21.40
2023-03-28T10:27:19.313Z,22.90
2023-03-28T10:29:51.236Z,23.90
2023-03-28T10:32:24.542Z,20.50
2023-03-28T10:35:00.310Z,21.60
2023-03-28T10:40:06.209Z,11.10
2023-03-28T10:45:22.466Z,20.40
2023-03-28T10:47:54.807Z,12.30
2023-03-28T10:50:28.096Z,14.00
2023-03-28T10:53:10.106Z,14.20
2023-03-28T10:55:44.144Z,9.90
2023-03-28T10:58:19.772Z,3.00
2023-03-28T11:00:53.688Z,8.80
2023-03-28T11:03:33.922Z,13.30
2023-03-28T11:06:09.950Z,13.20
2023-03-28T11:08:47.214Z,12.70
2023-03-28T11:11:43.603Z,14.40
2023-03-28T11:14:24.212Z,6.70
2023-03-28T11:16:58.896Z,12.30
2023-03-28T11:19:39.873Z,9.90
2023-03-28T11:22:16.159Z,11.40
2023-03-28T11:24:49.456Z,13.50
2023-03-28T11:27:23.953Z,8.90
2023-03-28T11:32:30.317Z,6.10
2023-03-28T11:35:05.161Z,7.70
2023-03-28T11:37:39.342Z,16.40
2023-03-28T11:40:15.454Z,8.00
2023-03-28T11:42:49.010Z,8.70
2023-03-28T11:45:37.533Z,7.20
2023-03-28T11:50:50.973Z,4.00
2023-03-28T11:53:24.284Z,10.90
2023-03-28T11:56:00.242Z,20.30
2023-03-28T11:58:33.036Z,21.00
2023-03-28T12:03:44.170Z,2.20
2023-03-28T12:06:17.964Z,2.90
2023-03-28T12:11:25.520Z,12.70
2023-03-28T12:14:08.985Z,23.40
2023-03-28T12:39:58.061Z,19.20
2023-03-28T12:42:29.738Z,16.70
2023-03-28T13:11:05.051Z,1.00
2023-03-28T13:13:41.884Z,1.00
2023-03-28T13:16:14.359Z,1.00
2023-03-28T13:21:40.786Z,4.30
2023-03-28T13:24:28.334Z,1.00
2023-03-28T13:27:00.581Z,1.00
2023-03-28T13:29:45.572Z,15.40
2023-03-28T13:34:53.968Z,12.30
2023-03-28T13:37:26.006Z,14.20
2023-03-28T13:42:30.871Z,1.40
2023-03-28T13:45:04.337Z,1.70
2023-03-28T13:47:37.920Z,1.00
2023-03-28T13:50:17.657Z,1.00
2023-03-28T13:52:49.346Z,1.00
2023-03-28T13:57:53.795Z,20.30
2023-03-28T14:00:25.767Z,19.70
2023-03-28T14:03:01.277Z,19.80
2023-03-28T14:05:34.362Z,18.30
2023-03-28T14:08:20.352Z,21.70
2023-03-28T14:10:52.050Z,19.70
2023-03-28T14:15:58.338Z,41.60
2023-03-28T14:18:32.059Z,27.70
2023-03-28T14:21:05.410Z,25.30
2023-03-28T14:23:38.035Z,17.20
2023-03-28T14:26:13.537Z,43.50
2023-03-28T14:28:45.519Z,38.30
2023-03-28T14:31:28.715Z,29.70
2023-03-28T14:34:00.841Z,43.00
2023-03-28T14:36:33.856Z,34.80
2023-03-28T14:39:08.586Z,36.10
2023-03-28T14:41:40.274Z,38.60
2023-03-28T14:44:12.171Z,36.50
2023-03-28T14:54:28.507Z,28.70
2023-03-28T15:07:24.857Z,24.50
2023-03-28T15:12:44.331Z,1.00
2023-03-28T15:15:17.616Z,3.80
2023-03-28T15:17:49.713Z,9.00
2023-03-28T15:20:23.361Z,6.20
2023-03-28T15:22:56.968Z,11.10
2023-03-28T15:25:28.736Z,11.20
2023-03-28T15:28:02.127Z,10.80
2023-03-28T15:30:35.795Z,1.00
2023-03-28T15:33:07.766Z,8.80
2023-03-28T15:35:39.972Z,5.20
2023-03-28T15:38:18.731Z,8.40
2023-03-28T15:40:50.933Z,7.60
2023-03-28T15:43:29.420Z,5.30
2023-03-28T15:46:01.771Z,9.60
2023-03-28T15:48:33.467Z,9.10
2023-03-28T15:51:06.097Z,1.00
2023-03-28T15:53:39.126Z,1.00
2023-03-28T15:56:15.020Z,10.70
2023-03-28T15:58:47.035Z,16.20
2023-03-28T16:01:21.164Z,13.60
2023-03-28T16:06:32.184Z,10.80
2023-03-28T16:09:14.379Z,11.00
2023-03-28T16:11:46.085Z,16.20
2023-03-28T16:14:18.726Z,1.00
2023-03-28T16:16:53.344Z,1.00
2023-03-28T16:19:26.022Z,1.00
2023-03-28T16:22:00.537Z,97.70
2023-03-28T16:24:34.220Z,99.90
2023-03-28T16:27:05.881Z,85.50
2023-03-28T16:29:37.547Z,93.80
2023-03-28T16:32:10.881Z,32.10
2023-03-28T16:34:43.049Z,33.60
2023-03-28T16:37:14.708Z,99.90
2023-03-28T16:39:47.921Z,99.90
2023-03-28T16:42:19.625Z,99.90
2023-03-28T16:44:51.311Z,1.00
2023-03-28T16:47:22.983Z,1.00
2023-03-28T16:49:54.669Z,1.00
2023-03-28T16:52:27.879Z,1.00
2023-03-28T16:55:02.689Z,93.30
2023-03-28T17:00:07.482Z,21.90
2023-03-28T17:02:39.233Z,20.90
2023-03-28T17:05:10.946Z,23.00
2023-03-28T17:07:42.603Z,20.90
2023-03-28T17:10:15.747Z,22.30
2023-03-28T17:12:47.437Z,25.10
2023-03-28T17:15:19.307Z,92.50
2023-03-28T17:17:51.106Z,99.90
2023-03-28T17:20:22.824Z,99.90
2023-03-28T17:22:54.530Z,99.90
2023-03-28T17:25:27.572Z,99.90
2023-03-28T17:27:59.266Z,99.90
2023-03-28T17:30:30.917Z,99.90
2023-03-28T17:33:02.823Z,32.90
2023-03-28T17:35:34.582Z,32.40
2023-03-28T17:38:06.288Z,27.60
2023-03-28T17:40:39.291Z,28.90
2023-03-28T17:43:10.961Z,32.20
2023-03-28T17:45:42.702Z,28.50
2023-03-28T17:48:14.401Z,26.70
2023-03-28T17:50:51.486Z,29.10
2023-03-28T17:53:23.152Z,28.80
2023-03-28T17:55:56.162Z,29.90
2023-03-28T17:58:27.809Z,29.50
2023-03-28T18:00:59.515Z,29.90
2023-03-28T18:03:31.273Z,31.60
2023-03-28T18:06:03.202Z,31.40
2023-03-28T18:08:35.050Z,34.40
2023-03-28T18:11:09.206Z,38.50
2023-03-28T18:13:41.026Z,1.00
2023-03-28T18:16:14.021Z,1.00
2023-03-28T18:18:45.745Z,1.00
2023-03-28T18:21:17.543Z,42.40
2023-03-28T18:23:49.249Z,99.90
2023-03-28T18:26:22.270Z,1.00
2023-03-28T18:28:53.931Z,44.30
2023-03-28T18:31:27.561Z,99.90
2023-03-28T18:33:59.757Z,99.90
2023-03-28T18:36:31.518Z,1.00
2023-03-28T18:39:03.306Z,99.90
2023-03-28T18:41:36.315Z,59.40
2023-03-28T18:44:07.987Z,59.90
2023-03-28T18:46:39.799Z,53.30
2023-03-28T18:49:11.508Z,99.90
2023-03-28T18:51:43.273Z,1.00
2023-03-28T18:54:14.948Z,1.00
2023-03-28T18:56:47.986Z,99.90
2023-03-28T18:59:19.673Z,1.00
2023-03-28T19:01:54.336Z,99.90
2023-03-28T19:04:27.922Z,1.00
2023-03-28T19:06:59.648Z,1.00
2023-03-28T19:09:31.321Z,1.00
2023-03-28T19:12:04.434Z,99.90
2023-03-28T19:14:36.136Z,99.90
2023-03-28T19:17:07.781Z,99.90
2023-03-28T19:19:39.501Z,99.90
2023-03-28T19:22:11.375Z,99.90
2023-03-28T19:24:43.086Z,99.90
2023-03-28T19:27:16.112Z,99.90
2023-03-28T19:29:47.816Z,99.90
2023-03-28T19:32:19.475Z,99.90
2023-03-28T19:34:51.176Z,99.90
2023-03-28T19:37:22.847Z,99.90
2023-03-28T19:39:54.516Z,99.90
2023-03-28T19:42:27.572Z,99.90
2023-03-28T19:44:59.235Z,99.90
2023-03-28T19:47:30.981Z,99.90
2023-03-28T19:50:03.008Z,99.90
2023-03-28T19:52:34.720Z,99.90
2023-03-28T19:55:09.715Z,99.90
2023-03-28T19:57:42.856Z,99.90
2023-03-28T20:00:15.038Z,99.90
2023-03-28T20:02:46.751Z,99.90
2023-03-28T20:05:18.547Z,99.90
2023-03-28T20:07:50.258Z,99.90
2023-03-28T20:10:21.914Z,99.90
2023-03-28T20:12:54.955Z,99.90
2023-03-28T20:15:26.763Z,99.90
2023-03-28T20:17:58.457Z,99.90
2023-03-28T20:20:30.156Z,99.90
2023-03-28T20:23:01.831Z,99.90
2023-03-28T20:25:33.481Z,99.90
2023-03-28T20:28:06.592Z,99.90
2023-03-28T20:30:38.255Z,99.90
2023-03-28T20:33:10.111Z,99.90
2023-03-28T20:35:41.933Z,99.90
2023-03-28T20:40:45.703Z,99.90
2023-03-28T20:43:18.795Z,99.90
2023-03-28T20:45:50.492Z,99.90
2023-03-28T20:48:22.366Z,99.90
2023-03-28T20:50:54.043Z,99.90
2023-03-28T20:53:27.737Z,99.90
2023-03-28T20:56:00.689Z,99.90
2023-03-28T20:58:33.768Z,99.90
2023-03-28T21:01:06.159Z,99.90
2023-03-28T21:03:37.914Z,99.90
2023-03-28T21:06:09.581Z,99.90
2023-03-28T21:11:13.901Z,99.90
2023-03-28T21:13:46.909Z,99.90
2023-03-28T21:16:18.628Z,99.90
2023-03-28T21:18:50.348Z,99.90
2023-03-28T21:23:54.280Z,99.90
2023-03-28T21:26:25.959Z,99.90
2023-03-28T21:31:31.714Z,99.90
2023-03-28T21:39:07.448Z,99.90
2023-03-28T21:41:39.091Z,99.90
2023-03-28T21:44:12.104Z,99.90
2023-03-28T21:46:43.735Z,99.90
2023-03-28T21:49:15.442Z,99.90
2023-03-28T21:51:47.083Z,99.90
2023-03-28T21:54:18.783Z,99.90
2023-03-28T21:56:50.677Z,99.90
2023-03-28T21:59:23.770Z,99.90
